createdAt,value
2019-06-01T00:02:22.791Z,15.73
2019-06-01T00:04:52.221Z,9.53
2019-06-01T00:07:21.759Z,9.60
2019-06-01T00:09:51.249Z,10.27
2019-06-01T00:12:20.685Z,14.57
2019-06-01T00:14:50.137Z,15.57
2019-06-01T00:17:19.615Z,19.60
2019-06-01T00:19:50.244Z,17.87
2019-06-01T00:22:19.876Z,12.90
2019-06-01T00:24:50.089Z,15.10
2019-06-01T00:27:19.636Z,20.67
2019-06-01T00:29:49.538Z,18.37
2019-06-01T00:32:19.282Z,17.93
2019-06-01T00:34:49.933Z,11.67
2019-06-01T00:37:19.455Z,20.03
2019-06-01T00:39:49.926Z,9.80
2019-06-01T00:42:19.946Z,10.47
2019-06-01T00:44:50.432Z,18.70
2019-06-01T00:47:20.000Z,12.70
2019-06-01T00:49:49.431Z,14.23
2019-06-01T00:52:18.886Z,12.37
2019-06-01T00:54:49.514Z,11.90
2019-06-01T00:57:21.958Z,16.17
2019-06-01T00:59:50.281Z,16.97
2019-06-01T01:02:19.738Z,10.67
2019-06-01T01:05:02.508Z,17.97
2019-06-01T01:07:31.977Z,8.50
2019-06-01T01:10:01.431Z,10.40
2019-06-01T01:12:30.853Z,9.43
2019-06-01T01:15:00.321Z,8.90
2019-06-01T01:17:29.936Z,12.13
2019-06-01T01:19:59.393Z,19.03
2019-06-01T01:22:28.864Z,16.10
2019-06-01T01:24:58.291Z,16.23
2019-06-01T01:27:27.724Z,17.10
2019-06-01T01:29:57.204Z,11.70
2019-06-01T01:32:26.649Z,11.27
2019-06-01T01:34:56.101Z,10.00
2019-06-01T01:37:25.576Z,11.60
2019-06-01T01:39:56.244Z,10.33
2019-06-01T01:42:25.813Z,13.67
2019-06-01T01:44:55.279Z,11.57
2019-06-01T01:47:24.730Z,10.17
2019-06-01T01:49:54.179Z,10.60
2019-06-01T01:52:23.660Z,11.60
2019-06-01T01:54:53.082Z,11.80
2019-06-01T01:57:22.509Z,10.50
2019-06-01T01:59:53.285Z,9.90
2019-06-01T02:02:22.899Z,10.00
2019-06-01T02:04:52.389Z,11.67
2019-06-01T02:07:23.117Z,15.60
2019-06-01T02:09:53.241Z,12.67
2019-06-01T02:12:22.780Z,12.10
2019-06-01T02:14:53.501Z,10.10
2019-06-01T02:17:23.210Z,10.13
2019-06-01T02:19:52.661Z,11.27
2019-06-01T02:22:22.141Z,12.07
2019-06-01T02:24:51.602Z,15.80
2019-06-01T02:27:21.039Z,15.67
2019-06-01T02:29:50.525Z,14.10
2019-06-01T02:32:19.956Z,21.33
2019-06-01T02:34:49.420Z,17.37
2019-06-01T02:37:18.969Z,11.47
2019-06-01T02:39:48.424Z,11.70
2019-06-01T02:42:17.856Z,16.13
2019-06-01T02:44:47.312Z,12.50
2019-06-01T02:47:16.732Z,10.40
2019-06-01T02:49:46.186Z,11.80
2019-06-01T02:52:15.658Z,11.17
2019-06-01T02:54:45.107Z,11.30
2019-06-01T02:57:14.540Z,15.03
2019-06-01T02:59:43.999Z,17.63
2019-06-01T03:02:15.138Z,18.40
2019-06-01T03:04:44.767Z,18.93
2019-06-01T03:07:15.951Z,16.27
2019-06-01T03:09:46.612Z,12.83
2019-06-01T03:12:19.635Z,16.80
2019-06-01T03:14:54.001Z,14.03
2019-06-01T03:17:26.100Z,17.00
2019-06-01T03:19:59.527Z,16.17
2019-06-01T03:22:32.039Z,17.53
2019-06-01T03:25:05.921Z,11.50
2019-06-01T03:27:38.664Z,19.50
2019-06-01T03:30:14.634Z,13.17
2019-06-01T03:32:41.579Z,12.73
2019-06-01T03:35:11.113Z,16.20
2019-06-01T03:37:40.723Z,18.17
2019-06-01T03:40:20.362Z,16.60
2019-06-01T03:42:41.702Z,17.60
2019-06-01T03:45:12.503Z,10.73
2019-06-01T03:47:43.064Z,15.00
2019-06-01T03:50:13.253Z,15.27
2019-06-01T03:52:43.058Z,15.47
2019-06-01T03:55:12.500Z,16.27
2019-06-01T03:57:41.951Z,10.57
2019-06-01T04:00:11.990Z,10.40
2019-06-01T04:02:41.640Z,11.00
2019-06-01T04:05:11.491Z,10.50
2019-06-01T04:07:40.906Z,11.97
2019-06-01T04:10:11.858Z,10.43
2019-06-01T04:12:41.328Z,11.23
2019-06-01T04:15:14.508Z,14.50
2019-06-01T04:17:43.832Z,12.97
2019-06-01T04:20:13.761Z,10.50
2019-06-01T04:22:43.202Z,17.50
2019-06-01T04:25:12.891Z,10.67
2019-06-01T04:27:42.352Z,10.93
2019-06-01T04:30:13.723Z,19.67
2019-06-01T04:32:49.939Z,14.70
2019-06-01T04:35:14.450Z,19.63
2019-06-01T04:37:43.901Z,20.27
2019-06-01T04:40:13.729Z,22.37
2019-06-01T04:42:43.148Z,17.40
2019-06-01T04:45:12.683Z,17.47
2019-06-01T04:47:42.106Z,23.07
2019-06-01T04:50:13.060Z,24.23
2019-06-01T04:52:42.570Z,15.30
2019-06-01T04:55:13.071Z,21.50
2019-06-01T04:57:42.631Z,23.23
2019-06-01T05:00:25.758Z,23.50
2019-06-01T05:02:45.229Z,24.20
2019-06-01T05:05:15.734Z,23.07
2019-06-01T05:07:45.359Z,22.67
2019-06-01T05:10:16.109Z,20.17
2019-06-01T05:12:45.941Z,13.53
2019-06-01T05:15:16.405Z,21.57
2019-06-01T05:17:45.916Z,22.40
2019-06-01T05:20:16.742Z,17.20
2019-06-01T05:22:46.168Z,21.60
2019-06-01T05:25:17.165Z,15.10
2019-06-01T05:27:46.808Z,14.00
2019-06-01T05:30:18.262Z,17.77
2019-06-01T05:32:47.961Z,20.20
2019-06-01T05:35:18.046Z,20.17
2019-06-01T05:37:47.493Z,18.33
2019-06-01T05:40:19.638Z,11.57
2019-06-01T05:42:49.238Z,18.30
2019-06-01T05:45:22.713Z,13.70
2019-06-01T05:47:51.736Z,15.87
2019-06-01T05:50:22.438Z,14.90
2019-06-01T05:52:52.246Z,14.50
2019-06-01T05:55:22.977Z,15.33
2019-06-01T05:57:52.647Z,14.23
2019-06-01T06:00:26.714Z,15.10
2019-06-01T06:02:56.297Z,16.47
2019-06-01T06:05:25.785Z,14.00
2019-06-01T06:07:55.234Z,15.33
2019-06-01T06:10:24.808Z,19.70
2019-06-01T06:12:54.245Z,10.00
2019-06-01T06:15:23.732Z,13.63
2019-06-01T06:17:53.213Z,12.97
2019-06-01T06:20:22.669Z,14.30
2019-06-01T06:22:52.508Z,14.50
2019-06-01T06:25:22.007Z,20.37
2019-06-01T06:27:51.438Z,15.60
2019-06-01T06:30:21.228Z,13.80
2019-06-01T06:32:50.678Z,14.90
2019-06-01T06:35:20.151Z,15.00
2019-06-01T06:37:49.618Z,13.43
2019-06-01T06:40:20.196Z,13.37
2019-06-01T06:42:49.674Z,11.37
2019-06-01T06:45:20.699Z,18.10
2019-06-01T06:47:50.314Z,15.77
2019-06-01T06:50:19.839Z,16.37
2019-06-01T06:52:49.328Z,15.80
2019-06-01T06:55:19.815Z,14.07
2019-06-01T06:57:49.299Z,12.57
2019-06-01T07:00:18.940Z,16.90
2019-06-01T07:02:48.420Z,12.17
2019-06-01T07:05:17.866Z,13.17
2019-06-01T07:07:47.346Z,10.70
2019-06-01T07:10:17.890Z,13.90
2019-06-01T07:12:47.466Z,12.87
2019-06-01T07:15:17.624Z,11.90
2019-06-01T07:17:47.080Z,12.80
2019-06-01T07:20:16.830Z,12.80
2019-06-01T07:22:46.364Z,13.57
2019-06-01T07:25:15.851Z,12.20
2019-06-01T07:27:45.298Z,13.30
2019-06-01T07:30:16.368Z,15.43
2019-06-01T07:32:45.823Z,11.87
2019-06-01T07:35:15.427Z,13.93
2019-06-01T07:37:44.896Z,10.87
2019-06-01T07:40:14.493Z,10.30
2019-06-01T07:42:43.953Z,10.50
2019-06-01T07:45:13.598Z,9.33
2019-06-01T07:47:43.241Z,12.13
2019-06-01T07:50:12.770Z,10.33
2019-06-01T07:52:42.232Z,12.30
2019-06-01T07:55:13.480Z,10.80
2019-06-01T07:57:44.280Z,11.63
2019-06-01T08:00:15.217Z,10.70
2019-06-01T08:02:44.671Z,11.80
2019-06-01T08:05:14.118Z,11.70
2019-06-01T08:07:43.578Z,11.87
2019-06-01T08:10:14.048Z,11.43
2019-06-01T08:12:43.530Z,10.00
2019-06-01T08:15:13.568Z,11.97
2019-06-01T08:17:43.042Z,9.97
2019-06-01T08:20:12.826Z,11.90
2019-06-01T08:22:42.307Z,10.20
2019-06-01T08:25:11.923Z,12.90
2019-06-01T08:27:41.407Z,12.40
2019-06-01T08:30:12.042Z,11.53
2019-06-01T08:32:41.503Z,11.50
2019-06-01T08:35:11.761Z,13.97
2019-06-01T08:37:41.248Z,11.33
2019-06-01T08:40:11.099Z,9.37
2019-06-01T08:42:40.529Z,8.97
2019-06-01T08:45:10.390Z,10.93
2019-06-01T08:47:59.218Z,9.57
2019-06-01T08:50:29.803Z,11.13
2019-06-01T08:52:59.513Z,10.60
2019-06-01T08:55:30.126Z,10.80
2019-06-01T08:57:59.686Z,10.40
2019-06-01T09:00:30.483Z,10.50
2019-06-01T09:03:00.080Z,12.50
2019-06-01T09:05:30.342Z,11.37
2019-06-01T09:08:00.734Z,11.27
2019-06-01T09:10:31.442Z,10.80
2019-06-01T09:13:00.995Z,11.60
2019-06-01T09:15:31.436Z,10.33
2019-06-01T09:18:00.999Z,12.77
2019-06-01T09:20:35.243Z,9.73
2019-06-01T09:23:01.657Z,9.57
2019-06-01T09:25:31.749Z,10.43
2019-06-01T09:28:01.260Z,11.23
2019-06-01T09:30:31.987Z,9.10
2019-06-01T09:33:01.653Z,11.93
2019-06-01T09:35:49.959Z,9.60
2019-06-01T09:38:02.293Z,14.10
2019-06-01T09:40:33.417Z,9.60
2019-06-01T09:43:02.950Z,11.17
2019-06-01T09:45:33.056Z,10.10
2019-06-01T09:48:03.620Z,9.43
2019-06-01T09:50:33.490Z,11.70
2019-06-01T09:53:03.030Z,9.10
2019-06-01T09:55:32.715Z,8.90
2019-06-01T09:58:03.589Z,8.60
2019-06-01T10:00:34.718Z,9.50
2019-06-01T10:03:04.434Z,7.83
2019-06-01T10:05:34.843Z,8.37
2019-06-01T10:08:04.503Z,8.50
2019-06-01T10:10:34.039Z,11.93
2019-06-01T10:13:07.424Z,10.20
2019-06-01T10:15:34.711Z,10.97
2019-06-01T10:18:04.268Z,8.43
2019-06-01T10:20:34.791Z,8.13
2019-06-01T10:23:04.338Z,9.93
2019-06-01T10:25:34.467Z,9.73
2019-06-01T10:28:04.409Z,9.30
2019-06-01T10:30:34.030Z,9.43
2019-06-01T10:33:03.620Z,11.00
2019-06-01T10:35:33.072Z,9.80
2019-06-01T10:38:02.565Z,10.03
2019-06-01T10:40:33.269Z,12.63
2019-06-01T10:43:05.263Z,8.30
2019-06-01T10:45:35.776Z,10.63
2019-06-01T10:48:05.346Z,8.53
2019-06-01T10:50:36.212Z,10.53
2019-06-01T10:53:06.041Z,9.50
2019-06-01T10:55:36.173Z,10.90
2019-06-01T10:58:05.882Z,8.97
2019-06-01T11:00:43.493Z,8.60
2019-06-01T11:03:06.791Z,9.17
2019-06-01T11:05:36.726Z,8.90
2019-06-01T11:08:06.188Z,9.10
2019-06-01T11:10:38.979Z,9.50
2019-06-01T11:13:08.488Z,8.33
2019-06-01T11:15:39.050Z,9.20
2019-06-01T11:18:08.721Z,9.20
2019-06-01T11:20:39.297Z,8.80
2019-06-01T11:23:08.956Z,8.23
2019-06-01T11:25:39.581Z,8.80
2019-06-01T11:28:09.139Z,8.50
2019-06-01T11:30:39.854Z,9.70
2019-06-01T11:33:09.470Z,10.70
2019-06-01T11:35:39.248Z,8.97
2019-06-01T11:38:08.861Z,9.20
2019-06-01T11:40:38.619Z,9.33
2019-06-01T11:43:08.164Z,8.40
2019-06-01T11:45:38.796Z,9.20
2019-06-01T11:48:08.380Z,10.03
2019-06-01T11:50:38.942Z,8.47
2019-06-01T11:53:08.386Z,9.37
2019-06-01T11:55:39.127Z,7.60
2019-06-01T11:58:08.769Z,8.00
2019-06-01T12:00:39.272Z,9.63
2019-06-01T12:03:09.136Z,9.77
2019-06-01T12:05:39.860Z,9.50
2019-06-01T12:08:09.405Z,8.60
2019-06-01T12:10:39.068Z,8.00
2019-06-01T12:13:08.538Z,8.63
2019-06-01T12:15:38.428Z,8.43
2019-06-01T12:18:08.156Z,9.77
2019-06-01T12:20:38.623Z,9.17
2019-06-01T12:23:08.129Z,8.50
2019-06-01T12:25:38.250Z,8.80
2019-06-01T12:28:07.821Z,8.60
2019-06-01T12:30:37.559Z,10.40
2019-06-01T12:33:07.049Z,8.50
2019-06-01T12:35:37.803Z,7.70
2019-06-01T12:38:07.331Z,9.47
2019-06-01T12:40:36.923Z,7.57
2019-06-01T12:43:06.364Z,13.13
2019-06-01T12:45:35.823Z,8.53
2019-06-01T12:48:05.363Z,9.07
2019-06-01T12:50:34.809Z,10.53
2019-06-01T12:53:04.282Z,8.80
2019-06-01T12:55:33.735Z,8.47
2019-06-01T12:58:03.170Z,8.67
2019-06-01T13:00:32.715Z,8.50
2019-06-01T13:03:07.579Z,7.93
2019-06-01T13:05:33.551Z,12.37
2019-06-01T13:08:03.192Z,8.20
2019-06-01T13:10:32.624Z,10.20
2019-06-01T13:13:02.107Z,10.30
2019-06-01T13:15:31.674Z,8.13
2019-06-01T13:18:01.117Z,7.23
2019-06-01T13:20:30.595Z,13.40
2019-06-01T13:23:00.023Z,10.10
2019-06-01T13:25:29.476Z,8.40
2019-06-01T13:27:58.905Z,8.60
2019-06-01T13:30:28.397Z,12.47
2019-06-01T13:32:57.924Z,15.20
2019-06-01T13:35:27.415Z,19.90
2019-06-01T13:38:10.641Z,10.27
2019-06-01T13:40:28.064Z,11.37
2019-06-01T13:42:58.705Z,7.27
2019-06-01T13:45:28.189Z,9.10
2019-06-01T13:47:57.632Z,8.77
2019-06-01T13:50:27.059Z,9.77
2019-06-01T13:52:56.533Z,13.00
2019-06-01T13:55:26.001Z,8.70
2019-06-01T13:57:55.458Z,7.97
2019-06-01T14:00:30.392Z,10.70
2019-06-01T14:02:57.678Z,10.30
2019-06-01T14:05:27.310Z,7.50
2019-06-01T14:07:56.800Z,9.30
2019-06-01T14:10:26.264Z,9.97
2019-06-01T14:12:55.697Z,8.43
2019-06-01T14:15:25.177Z,8.97
2019-06-01T14:17:54.770Z,9.03
2019-06-01T14:20:24.203Z,9.80
2019-06-01T14:22:54.127Z,8.90
2019-06-01T14:25:23.579Z,9.93
2019-06-01T14:27:54.316Z,8.37
2019-06-01T14:30:25.504Z,9.23
2019-06-01T14:32:54.954Z,7.90
2019-06-01T14:35:24.435Z,9.73
2019-06-01T14:37:55.138Z,9.10
2019-06-01T14:40:24.813Z,8.70
2019-06-01T14:42:54.253Z,9.20
2019-06-01T14:45:24.324Z,8.83
2019-06-01T14:47:53.804Z,9.10
2019-06-01T14:50:23.409Z,10.00
2019-06-01T14:52:53.701Z,8.73
2019-06-01T14:55:23.308Z,8.10
2019-06-01T14:57:53.889Z,8.00
2019-06-01T15:00:23.807Z,8.20
2019-06-01T15:02:56.212Z,9.40
2019-06-01T15:05:25.989Z,7.80
2019-06-01T15:07:57.053Z,9.57
2019-06-01T15:10:26.780Z,8.10
2019-06-01T15:13:00.746Z,10.10
2019-06-01T15:15:27.657Z,8.23
2019-06-01T15:17:57.579Z,9.43
2019-06-01T15:20:27.047Z,13.53
2019-06-01T15:22:56.545Z,10.23
2019-06-01T15:25:25.998Z,10.93
2019-06-01T15:27:56.762Z,10.77
2019-06-01T15:30:26.649Z,8.97
2019-06-01T15:32:56.267Z,10.40
2019-06-01T15:35:25.653Z,8.60
2019-06-01T15:37:58.927Z,11.40
2019-06-01T15:40:26.286Z,9.40
2019-06-01T15:42:57.213Z,10.10
2019-06-01T15:45:26.789Z,9.00
2019-06-01T15:47:56.576Z,11.10
2019-06-01T15:50:27.205Z,8.80
2019-06-01T15:52:57.032Z,9.50
2019-06-01T15:55:26.911Z,9.00
2019-06-01T15:57:56.576Z,9.90
2019-06-01T16:00:26.948Z,9.23
2019-06-01T16:02:56.877Z,10.20
2019-06-01T16:05:26.509Z,8.53
2019-06-01T16:07:57.116Z,9.57
2019-06-01T16:10:26.784Z,8.03
2019-06-01T16:12:57.463Z,8.80
2019-06-01T16:15:27.017Z,8.40
2019-06-01T16:17:57.836Z,9.80
2019-06-01T16:20:27.466Z,9.17
2019-06-01T16:22:58.030Z,7.97
2019-06-01T16:25:27.671Z,8.70
2019-06-01T16:27:57.127Z,8.30
2019-06-01T16:30:26.970Z,8.73
2019-06-01T16:32:56.641Z,10.17
2019-06-01T16:35:26.088Z,8.40
2019-06-01T16:37:56.785Z,8.77
2019-06-01T16:40:26.380Z,7.67
2019-06-01T16:42:55.860Z,9.10
2019-06-01T16:45:25.335Z,9.57
2019-06-01T16:47:55.454Z,12.70
2019-06-01T16:50:25.068Z,9.03
2019-06-01T16:52:55.796Z,8.60
2019-06-01T16:55:25.316Z,9.80
2019-06-01T16:57:54.844Z,10.10
2019-06-01T17:00:24.590Z,9.53
2019-06-01T17:02:54.048Z,8.90
2019-06-01T17:05:23.571Z,9.50
2019-06-01T17:07:53.066Z,8.63
2019-06-01T17:10:26.460Z,7.80
2019-06-01T17:12:53.843Z,9.13
2019-06-01T17:15:23.272Z,8.63
2019-06-01T17:17:52.750Z,10.03
2019-06-01T17:20:43.440Z,8.70
2019-06-01T17:23:26.617Z,8.13
2019-06-01T17:25:45.590Z,8.20
2019-06-01T17:28:15.384Z,9.50
2019-06-01T17:30:44.955Z,9.20
2019-06-01T17:33:14.606Z,11.17
2019-06-01T17:35:44.053Z,9.70
2019-06-01T17:38:13.651Z,9.83
2019-06-01T17:40:43.594Z,8.97
2019-06-01T17:43:13.513Z,9.33
2019-06-01T17:45:43.007Z,8.50
2019-06-01T17:48:24.680Z,9.17
2019-06-01T17:50:43.757Z,8.97
2019-06-01T17:53:13.240Z,10.00
2019-06-01T17:55:43.724Z,10.07
2019-06-01T17:58:13.275Z,8.17
2019-06-01T18:00:43.357Z,11.00
2019-06-01T18:03:12.846Z,9.37
2019-06-01T18:05:42.762Z,13.63
2019-06-01T18:08:12.796Z,8.40
2019-06-01T18:10:53.365Z,7.87
2019-06-01T18:13:18.140Z,10.37
2019-06-01T18:15:50.002Z,8.90
2019-06-01T18:18:18.842Z,9.50
2019-06-01T18:20:48.632Z,9.87
2019-06-01T18:23:17.903Z,10.20
2019-06-01T18:25:47.609Z,8.40
2019-06-01T18:28:19.720Z,9.00
2019-06-01T18:30:50.171Z,11.23
2019-06-01T18:33:20.428Z,14.90
2019-06-01T18:35:49.953Z,13.00
2019-06-01T18:38:19.546Z,19.73
2019-06-01T18:40:49.086Z,12.67
2019-06-01T18:43:19.656Z,10.73
2019-06-01T18:45:50.054Z,10.77
2019-06-01T18:48:20.036Z,11.77
2019-06-01T18:50:49.563Z,11.47
2019-06-01T18:53:19.349Z,10.43
2019-06-01T18:55:49.543Z,12.47
2019-06-01T18:58:19.001Z,9.53
2019-06-01T19:00:48.532Z,10.43
2019-06-01T19:03:18.008Z,14.43
2019-06-01T19:05:47.520Z,8.63
2019-06-01T19:08:16.987Z,10.83
2019-06-01T19:10:47.563Z,10.70
2019-06-01T19:13:17.595Z,11.73
2019-06-01T19:15:47.033Z,8.47
2019-06-01T19:18:17.167Z,9.63
2019-06-01T19:20:46.842Z,14.30
2019-06-01T19:23:20.210Z,10.70
2019-06-01T19:25:47.463Z,11.73
2019-06-01T19:28:17.520Z,12.17
2019-06-01T19:30:47.647Z,11.63
2019-06-01T19:33:19.308Z,11.40
2019-06-01T19:35:49.269Z,9.07
2019-06-01T19:38:19.840Z,12.03
2019-06-01T19:40:49.306Z,9.83
2019-06-01T19:43:18.757Z,10.67
2019-06-01T19:45:48.212Z,13.20
2019-06-01T19:48:18.824Z,10.90
2019-06-01T19:50:48.642Z,10.87
2019-06-01T19:53:18.937Z,9.70
2019-06-01T19:55:48.773Z,9.23
2019-06-01T19:58:19.096Z,11.57
2019-06-01T20:00:48.759Z,10.40
2019-06-01T20:03:22.202Z,13.23
2019-06-01T20:05:51.418Z,10.03
2019-06-01T20:08:20.860Z,8.73
2019-06-01T20:10:50.316Z,10.17
2019-06-01T20:13:19.771Z,11.67
2019-06-01T20:15:49.227Z,15.63
2019-06-01T20:18:19.141Z,11.80
2019-06-01T20:20:48.738Z,13.33
2019-06-01T20:23:19.546Z,12.13
2019-06-01T20:25:49.145Z,15.40
2019-06-01T20:28:19.532Z,11.23
2019-06-01T20:30:49.227Z,10.87
2019-06-01T20:33:20.266Z,9.33
2019-06-01T20:35:49.929Z,13.27
2019-06-01T20:38:20.537Z,11.63
2019-06-01T20:40:50.143Z,14.23
2019-06-01T20:43:20.822Z,16.63
2019-06-01T20:45:50.404Z,15.30
2019-06-01T20:48:20.906Z,13.63
2019-06-01T20:50:50.490Z,11.90
2019-06-01T20:53:21.032Z,11.53
2019-06-01T20:55:50.701Z,12.80
2019-06-01T20:58:23.322Z,19.83
2019-06-01T21:00:52.848Z,17.00
2019-06-01T21:03:22.327Z,9.67
2019-06-01T21:05:51.775Z,10.70
2019-06-01T21:08:22.456Z,12.23
2019-06-01T21:10:52.004Z,14.60
2019-06-01T21:13:22.304Z,15.40
2019-06-01T21:15:51.874Z,18.23
2019-06-01T21:18:22.582Z,16.20
2019-06-01T21:20:52.274Z,16.53
2019-06-01T21:23:23.025Z,15.83
2019-06-01T21:25:53.401Z,17.60
2019-06-01T21:28:23.826Z,9.50
2019-06-01T21:30:54.005Z,11.43
2019-06-01T21:33:27.140Z,13.23
2019-06-01T21:35:54.741Z,11.70
2019-06-01T21:38:24.166Z,11.67
2019-06-01T21:40:53.655Z,9.73
2019-06-01T21:43:32.564Z,19.53
2019-06-01T21:45:54.276Z,16.90
2019-06-01T21:48:24.413Z,16.20
2019-06-01T21:50:53.970Z,16.23
2019-06-01T21:53:24.522Z,17.47
2019-06-01T21:55:54.164Z,9.70
2019-06-01T21:58:24.572Z,16.83
2019-06-01T22:00:54.460Z,19.30
2019-06-01T22:03:25.607Z,16.40
2019-06-01T22:05:55.221Z,16.13
2019-06-01T22:08:25.336Z,15.50
2019-06-01T22:10:55.076Z,10.17
2019-06-01T22:13:26.847Z,10.70
2019-06-01T22:15:55.689Z,18.40
2019-06-01T22:18:25.820Z,19.60
2019-06-01T22:20:55.394Z,21.17
2019-06-01T22:23:25.994Z,14.50
2019-06-01T22:25:55.694Z,13.13
2019-06-01T22:28:26.290Z,9.70
2019-06-01T22:30:55.739Z,11.97
2019-06-01T22:33:26.493Z,22.10
2019-06-01T22:35:55.969Z,11.57
2019-06-01T22:38:25.777Z,10.13
2019-06-01T22:40:55.342Z,21.03
2019-06-01T22:43:39.225Z,10.70
2019-06-01T22:45:55.981Z,33.60
2019-06-01T22:48:26.604Z,42.17
2019-06-01T22:50:56.113Z,34.33
2019-06-01T22:53:26.249Z,25.67
2019-06-01T22:55:55.743Z,15.80
2019-06-01T22:58:25.363Z,28.93
2019-06-01T23:00:54.797Z,29.23
2019-06-01T23:03:25.738Z,32.73
2019-06-01T23:06:14.644Z,26.30
2019-06-01T23:08:44.186Z,28.90
2019-06-01T23:11:13.612Z,20.40
2019-06-01T23:13:52.728Z,31.60
2019-06-01T23:16:14.581Z,28.90
2019-06-01T23:18:44.389Z,38.67
2019-06-01T23:21:13.826Z,56.93
2019-06-01T23:23:43.337Z,45.87
2019-06-01T23:26:12.990Z,32.07
2019-06-01T23:28:42.473Z,15.20
2019-06-01T23:31:12.094Z,23.17
2019-06-01T23:33:41.588Z,16.50
2019-06-01T23:36:11.056Z,16.83
2019-06-01T23:38:40.887Z,17.63
2019-06-01T23:41:10.667Z,15.77
2019-06-01T23:43:40.237Z,15.00
2019-06-01T23:46:09.762Z,16.53
2019-06-01T23:48:39.197Z,24.80
2019-06-01T23:51:08.624Z,27.03
2019-06-01T23:53:38.110Z,21.57
2019-06-01T23:56:07.560Z,20.60
2019-06-01T23:58:37.000Z,20.77
